sensor_id;sensor_type;location;lat;lon;timestamp;pressure;altitude;pressure_sealevel;temperature;humidity
52777;BME280;38656;54.260;20.822;2023-06-22T00:02:01;101027.38;;;24.03;100.00
52777;BME280;38656;54.260;20.822;2023-06-22T00:04:28;101014.81;;;24.59;100.00
52777;BME280;38656;54.260;20.822;2023-06-22T00:06:54;101011.78;;;24.40;100.00
52777;BME280;38656;54.260;20.822;2023-06-22T00:09:20;101010.06;;;24.26;100.00
52777;BME280;38656;54.260;20.822;2023-06-22T00:11:46;100997.06;;;25.24;100.00
52777;BME280;38656;54.260;20.822;2023-06-22T00:14:12;101002.06;;;25.14;100.00
52777;BME280;38656;54.260;20.822;2023-06-22T00:16:38;100995.00;;;25.67;100.00
52777;BME280;38656;54.260;20.822;2023-06-22T00:19:04;100990.38;;;26.01;100.00
52777;BME280;38656;54.260;20.822;2023-06-22T00:21:31;100994.13;;;26.00;100.00
52777;BME280;38656;54.260;20.822;2023-06-22T00:23:57;100996.16;;;26.18;100.00
52777;BME280;38656;54.260;20.822;2023-06-22T00:26:24;100996.16;;;26.18;100.00
52777;BME280;38656;54.260;20.822;2023-06-22T00:28:50;100993.69;;;26.03;100.00
52777;BME280;38656;54.260;20.822;2023-06-22T00:31:16;100991.78;;;26.23;100.00
52777;BME280;38656;54.260;20.822;2023-06-22T00:33:42;100994.91;;;26.20;100.00
52777;BME280;38656;54.260;20.822;2023-06-22T00:36:09;100987.84;;;26.12;100.00
52777;BME280;38656;54.260;20.822;2023-06-22T00:38:38;100997.44;;;25.95;100.00
52777;BME280;38656;54.260;20.822;2023-06-22T00:41:06;100989.13;;;25.83;100.00
52777;BME280;38656;54.260;20.822;2023-06-22T00:43:32;100993.69;;;26.03;100.00
52777;BME280;38656;54.260;20.822;2023-06-22T00:45:58;100998.97;;;25.64;100.00
52777;BME280;38656;54.260;20.822;2023-06-22T00:48:25;100997.03;;;24.36;100.00
52777;BME280;38656;54.260;20.822;2023-06-22T00:50:51;100996.91;;;24.58;100.00
52777;BME280;38656;54.260;20.822;2023-06-22T00:53:19;101000.59;;;23.73;100.00
52777;BME280;38656;54.260;20.822;2023-06-22T00:55:45;101002.34;;;23.88;100.00
52777;BME280;38656;54.260;20.822;2023-06-22T00:58:18;101012.16;;;23.67;100.00
52777;BME280;38656;54.260;20.822;2023-06-22T01:00:47;101016.31;;;23.69;100.00
52777;BME280;38656;54.260;20.822;2023-06-22T01:03:14;101005.38;;;23.49;100.00
52777;BME280;38656;54.260;20.822;2023-06-22T01:05:42;101011.50;;;23.65;100.00
52777;BME280;38656;54.260;20.822;2023-06-22T01:11:20;101001.31;;;24.24;100.00
52777;BME280;38656;54.260;20.822;2023-06-22T01:16:30;101012.56;;;23.64;100.00
52777;BME280;38656;54.260;20.822;2023-06-22T01:19:00;101013.72;;;23.55;100.00
52777;BME280;38656;54.260;20.822;2023-06-22T01:21:30;101019.88;;;23.48;100.00
52777;BME280;38656;54.260;20.822;2023-06-22T01:24:22;101026.16;;;23.56;100.00
52777;BME280;38656;54.260;20.822;2023-06-22T01:29:19;101032.09;;;23.23;100.00
52777;BME280;38656;54.260;20.822;2023-06-22T01:31:48;101029.53;;;23.14;100.00
52777;BME280;38656;54.260;20.822;2023-06-22T01:34:17;101027.50;;;23.95;100.00
52777;BME280;38656;54.260;20.822;2023-06-22T01:36:43;101023.63;;;23.47;100.00
52777;BME280;38656;54.260;20.822;2023-06-22T01:39:11;101022.00;;;23.81;100.00
52777;BME280;38656;54.260;20.822;2023-06-22T01:41:38;101021.94;;;23.46;100.00
52777;BME280;38656;54.260;20.822;2023-06-22T01:44:09;101034.41;;;23.26;100.00
52777;BME280;38656;54.260;20.822;2023-06-22T01:46:37;101033.34;;;23.05;100.00
52777;BME280;38656;54.260;20.822;2023-06-22T01:49:05;101033.78;;;22.87;100.00
52777;BME280;38656;54.260;20.822;2023-06-22T01:51:32;101034.88;;;23.29;100.00
52777;BME280;38656;54.260;20.822;2023-06-22T01:53:58;101039.13;;;23.45;100.00
52777;BME280;38656;54.260;20.822;2023-06-22T01:56:24;101039.13;;;23.45;100.00
52777;BME280;38656;54.260;20.822;2023-06-22T01:59:04;101043.66;;;24.16;100.00
52777;BME280;38656;54.260;20.822;2023-06-22T02:04:27;101041.28;;;23.78;100.00
52777;BME280;38656;54.260;20.822;2023-06-22T02:06:58;101032.34;;;23.49;100.00
52777;BME280;38656;54.260;20.822;2023-06-22T02:09:28;101026.66;;;23.66;100.00
52777;BME280;38656;54.260;20.822;2023-06-22T02:11:56;101025.34;;;23.55;100.00
52777;BME280;38656;54.260;20.822;2023-06-22T02:14:24;101020.53;;;24.42;100.00
52777;BME280;38656;54.260;20.822;2023-06-22T02:16:51;101026.09;;;23.99;100.00
52777;BME280;38656;54.260;20.822;2023-06-22T02:19:23;101027.28;;;23.90;100.00
52777;BME280;38656;54.260;20.822;2023-06-22T02:21:49;101031.00;;;23.89;100.00
52777;BME280;38656;54.260;20.822;2023-06-22T02:24:15;101022.56;;;24.33;100.00
52777;BME280;38656;54.260;20.822;2023-06-22T02:26:43;101028.94;;;24.61;100.00
52777;BME280;38656;54.260;20.822;2023-06-22T02:29:11;101038.66;;;24.13;100.00
52777;BME280;38656;54.260;20.822;2023-06-22T02:31:37;101037.13;;;24.04;100.00
52777;BME280;38656;54.260;20.822;2023-06-22T02:34:03;101029.16;;;24.24;100.00
52777;BME280;38656;54.260;20.822;2023-06-22T02:36:29;101042.06;;;24.29;100.00
52777;BME280;38656;54.260;20.822;2023-06-22T02:38:56;101044.31;;;24.67;100.00
52777;BME280;38656;54.260;20.822;2023-06-22T02:41:25;101046.09;;;25.08;100.00
52777;BME280;38656;54.260;20.822;2023-06-22T02:43:51;101043.16;;;24.89;100.00
52777;BME280;38656;54.260;20.822;2023-06-22T02:46:17;101038.97;;;24.73;100.00
52777;BME280;38656;54.260;20.822;2023-06-22T02:48:43;101038.50;;;25.45;100.00
52777;BME280;38656;54.260;20.822;2023-06-22T02:51:09;101041.19;;;24.21;100.00
52777;BME280;38656;54.260;20.822;2023-06-22T02:53:35;101040.97;;;24.16;100.00
52777;BME280;38656;54.260;20.822;2023-06-22T02:56:04;101044.47;;;24.17;100.00
52777;BME280;38656;54.260;20.822;2023-06-22T02:58:32;101049.53;;;23.70;100.00
52777;BME280;38656;54.260;20.822;2023-06-22T03:01:05;101046.91;;;24.05;100.00
52777;BME280;38656;54.260;20.822;2023-06-22T03:03:31;101047.28;;;24.02;100.00
52777;BME280;38656;54.260;20.822;2023-06-22T03:05:58;101054.41;;;23.60;100.00
52777;BME280;38656;54.260;20.822;2023-06-22T03:08:24;101059.13;;;24.36;100.00
52777;BME280;38656;54.260;20.822;2023-06-22T03:10:50;101061.69;;;23.88;100.00
52777;BME280;38656;54.260;20.822;2023-06-22T03:13:16;101051.28;;;23.84;100.00
52777;BME280;38656;54.260;20.822;2023-06-22T03:15:42;101052.84;;;24.29;100.00
52777;BME280;38656;54.260;20.822;2023-06-22T03:18:08;101047.53;;;24.42;100.00
52777;BME280;38656;54.260;20.822;2023-06-22T03:20:35;101047.53;;;24.90;100.00
52777;BME280;38656;54.260;20.822;2023-06-22T03:23:01;101056.00;;;24.74;100.00
52777;BME280;38656;54.260;20.822;2023-06-22T03:25:27;101053.00;;;25.24;100.00
52777;BME280;38656;54.260;20.822;2023-06-22T03:27:53;101052.94;;;24.90;100.00
52777;BME280;38656;54.260;20.822;2023-06-22T03:30:19;101056.69;;;24.96;100.00
52777;BME280;38656;54.260;20.822;2023-06-22T03:32:45;101062.34;;;25.21;100.00
52777;BME280;38656;54.260;20.822;2023-06-22T03:35:12;101060.53;;;24.67;100.00
52777;BME280;38656;54.260;20.822;2023-06-22T03:37:40;101059.66;;;24.60;100.00
52777;BME280;38656;54.260;20.822;2023-06-22T03:40:06;101069.72;;;24.79;100.00
52777;BME280;38656;54.260;20.822;2023-06-22T03:42:34;101064.69;;;25.38;100.00
52777;BME280;38656;54.260;20.822;2023-06-22T03:45:04;101059.28;;;25.31;100.00
52777;BME280;38656;54.260;20.822;2023-06-22T03:47:30;101071.03;;;25.03;100.00
52777;BME280;38656;54.260;20.822;2023-06-22T03:49:56;101071.94;;;25.17;100.00
52777;BME280;38656;54.260;20.822;2023-06-22T03:52:23;101070.69;;;25.26;100.00
52777;BME280;38656;54.260;20.822;2023-06-22T03:54:49;101065.22;;;24.93;100.00
52777;BME280;38656;54.260;20.822;2023-06-22T03:57:15;101066.53;;;25.31;100.00
52777;BME280;38656;54.260;20.822;2023-06-22T03:59:41;101076.44;;;24.97;100.00
52777;BME280;38656;54.260;20.822;2023-06-22T04:02:07;101076.81;;;24.87;100.00
52777;BME280;38656;54.260;20.822;2023-06-22T04:04:34;101075.38;;;24.49;100.00
52777;BME280;38656;54.260;20.822;2023-06-22T04:07:01;101081.38;;;24.86;100.00
52777;BME280;38656;54.260;20.822;2023-06-22T04:09:27;101088.47;;;24.17;100.00
52777;BME280;38656;54.260;20.822;2023-06-22T04:11:53;101097.38;;;24.46;100.00
52777;BME280;38656;54.260;20.822;2023-06-22T04:14:19;101092.94;;;24.60;100.00
52777;BME280;38656;54.260;20.822;2023-06-22T04:16:45;101084.19;;;25.13;100.00
52777;BME280;38656;54.260;20.822;2023-06-22T04:19:12;101088.56;;;25.21;100.00
52777;BME280;38656;54.260;20.822;2023-06-22T04:21:42;101076.16;;;25.80;100.00
52777;BME280;38656;54.260;20.822;2023-06-22T04:24:10;101075.66;;;24.61;100.00
52777;BME280;38656;54.260;20.822;2023-06-22T04:26:37;101073.56;;;25.18;100.00
52777;BME280;38656;54.260;20.822;2023-06-22T04:29:04;101073.66;;;25.92;100.00
52777;BME280;38656;54.260;20.822;2023-06-22T04:31:34;101085.47;;;24.34;100.00
52777;BME280;38656;54.260;20.822;2023-06-22T04:34:07;101084.63;;;24.62;100.00
52777;BME280;38656;54.260;20.822;2023-06-22T04:36:35;101082.84;;;24.47;100.00
52777;BME280;38656;54.260;20.822;2023-06-22T04:39:09;101082.00;;;26.04;100.00
52777;BME280;38656;54.260;20.822;2023-06-22T04:41:39;101073.66;;;25.58;100.00
52777;BME280;38656;54.260;20.822;2023-06-22T04:44:18;101082.34;;;24.72;100.00
52777;BME280;38656;54.260;20.822;2023-06-22T04:47:00;101082.94;;;24.61;100.00
52777;BME280;38656;54.260;20.822;2023-06-22T04:49:29;101087.38;;;25.43;100.00
52777;BME280;38656;54.260;20.822;2023-06-22T04:51:59;101086.56;;;25.56;100.00
52777;BME280;38656;54.260;20.822;2023-06-22T04:54:25;101087.78;;;25.40;100.00
52777;BME280;38656;54.260;20.822;2023-06-22T04:56:52;101084.06;;;25.55;100.00
52777;BME280;38656;54.260;20.822;2023-06-22T04:59:25;101079.91;;;25.52;100.00
52777;BME280;38656;54.260;20.822;2023-06-22T05:01:54;101080.72;;;25.39;100.00
52777;BME280;38656;54.260;20.822;2023-06-22T05:04:21;101083.63;;;25.38;100.00
52777;BME280;38656;54.260;20.822;2023-06-22T05:06:49;101067.34;;;25.18;100.00
52777;BME280;38656;54.260;20.822;2023-06-22T05:09:15;101070.72;;;25.80;100.00
52777;BME280;38656;54.260;20.822;2023-06-22T05:11:42;101078.94;;;26.59;100.00
52777;BME280;38656;54.260;20.822;2023-06-22T05:14:08;101085.63;;;26.56;100.00
52777;BME280;38656;54.260;20.822;2023-06-22T05:16:35;101087.09;;;25.18;100.00
52777;BME280;38656;54.260;20.822;2023-06-22T05:19:02;101090.97;;;24.96;100.00
52777;BME280;38656;54.260;20.822;2023-06-22T05:21:30;101085.91;;;25.34;100.00
52777;BME280;38656;54.260;20.822;2023-06-22T05:23:57;101091.97;;;26.10;100.00
52777;BME280;38656;54.260;20.822;2023-06-22T05:26:26;101096.09;;;25.32;100.00
52777;BME280;38656;54.260;20.822;2023-06-22T05:28:53;101108.03;;;24.96;100.00
52777;BME280;38656;54.260;20.822;2023-06-22T05:31:20;101100.97;;;25.02;100.00
52777;BME280;38656;54.260;20.822;2023-06-22T05:33:48;101097.78;;;25.40;100.00
52777;BME280;38656;54.260;20.822;2023-06-22T05:36:15;101105.31;;;25.58;100.00
52777;BME280;38656;54.260;20.822;2023-06-22T05:38:42;101112.78;;;26.16;100.00
52777;BME280;38656;54.260;20.822;2023-06-22T05:41:08;101111.50;;;26.39;100.00
52777;BME280;38656;54.260;20.822;2023-06-22T05:43:35;101100.69;;;25.45;100.00
52777;BME280;38656;54.260;20.822;2023-06-22T05:46:02;101097.44;;;25.08;100.00
52777;BME280;38656;54.260;20.822;2023-06-22T05:48:28;101106.53;;;25.55;100.00
52777;BME280;38656;54.260;20.822;2023-06-22T05:50:54;101112.34;;;25.52;100.00
52777;BME280;38656;54.260;20.822;2023-06-22T05:53:21;101112.59;;;24.96;100.00
52777;BME280;38656;54.260;20.822;2023-06-22T05:55:47;101110.28;;;25.94;100.00
52777;BME280;38656;54.260;20.822;2023-06-22T05:58:13;101116.53;;;25.61;100.00
52777;BME280;38656;54.260;20.822;2023-06-22T06:00:40;101118.09;;;25.22;100.00
52777;BME280;38656;54.260;20.822;2023-06-22T06:03:07;101118.50;;;25.19;100.00
52777;BME280;38656;54.260;20.822;2023-06-22T06:05:36;101119.44;;;25.93;100.00
52777;BME280;38656;54.260;20.822;2023-06-22T06:08:05;101129.03;;;25.76;100.00
52777;BME280;38656;54.260;20.822;2023-06-22T06:10:32;101141.91;;;25.74;100.00
52777;BME280;38656;54.260;20.822;2023-06-22T06:12:59;101144.78;;;25.39;100.00
52777;BME280;38656;54.260;20.822;2023-06-22T06:15:28;101134.19;;;25.44;100.00
52777;BME280;38656;54.260;20.822;2023-06-22T06:17:54;101141.31;;;25.85;100.00
52777;BME280;38656;54.260;20.822;2023-06-22T06:20:24;101141.09;;;26.47;100.00
52777;BME280;38656;54.260;20.822;2023-06-22T06:22:51;101135.94;;;26.97;100.00
52777;BME280;38656;54.260;20.822;2023-06-22T06:25:17;101139.94;;;27.90;100.00
52777;BME280;38656;54.260;20.822;2023-06-22T06:27:47;101129.63;;;28.68;100.00
52777;BME280;38656;54.260;20.822;2023-06-22T06:30:15;101136.00;;;27.23;100.00
52777;BME280;38656;54.260;20.822;2023-06-22T06:32:42;101141.13;;;28.01;100.00
52777;BME280;38656;54.260;20.822;2023-06-22T06:35:09;101139.53;;;27.23;100.00
52777;BME280;38656;54.260;20.822;2023-06-22T06:37:38;101138.94;;;26.76;100.00
52777;BME280;38656;54.260;20.822;2023-06-22T06:40:05;101130.69;;;26.30;100.00
52777;BME280;38656;54.260;20.822;2023-06-22T06:42:36;101131.84;;;27.20;100.00
52777;BME280;38656;54.260;20.822;2023-06-22T06:45:04;101145.78;;;27.37;100.00
52777;BME280;38656;54.260;20.822;2023-06-22T06:47:31;101154.72;;;26.92;100.00
52777;BME280;38656;54.260;20.822;2023-06-22T06:49:57;101157.41;;;27.44;100.00
52777;BME280;38656;54.260;20.822;2023-06-22T06:52:23;101158.03;;;26.94;100.00
52777;BME280;38656;54.260;20.822;2023-06-22T06:54:50;101162.56;;;26.28;100.00
52777;BME280;38656;54.260;20.822;2023-06-22T06:57:18;101160.66;;;26.49;100.00
52777;BME280;38656;54.260;20.822;2023-06-22T06:59:46;101160.56;;;26.89;100.00
52777;BME280;38656;54.260;20.822;2023-06-22T07:02:12;101159.63;;;26.37;100.00
52777;BME280;38656;54.260;20.822;2023-06-22T07:04:38;101157.34;;;25.93;100.00
52777;BME280;38656;54.260;20.822;2023-06-22T07:07:05;101168.97;;;25.94;100.00
52777;BME280;38656;54.260;20.822;2023-06-22T07:09:31;101167.00;;;26.95;100.00
52777;BME280;38656;54.260;20.822;2023-06-22T07:11:58;101168.56;;;26.57;100.00
52777;BME280;38656;54.260;20.822;2023-06-22T07:14:24;101170.91;;;26.20;100.00
52777;BME280;38656;54.260;20.822;2023-06-22T07:16:50;101177.13;;;25.81;100.00
52777;BME280;38656;54.260;20.822;2023-06-22T07:19:16;101171.88;;;26.73;100.00
52777;BME280;38656;54.260;20.822;2023-06-22T07:21:50;101177.69;;;26.83;100.00
52777;BME280;38656;54.260;20.822;2023-06-22T07:24:16;101184.19;;;26.55;100.00
52777;BME280;38656;54.260;20.822;2023-06-22T07:26:42;101187.47;;;26.84;100.00
52777;BME280;38656;54.260;20.822;2023-06-22T07:29:12;101185.56;;;25.44;100.00
52777;BME280;38656;54.260;20.822;2023-06-22T07:31:38;101173.16;;;25.83;100.00
52777;BME280;38656;54.260;20.822;2023-06-22T07:34:06;101179.53;;;25.42;100.00
52777;BME280;38656;54.260;20.822;2023-06-22T07:36:32;101177.91;;;25.06;100.00
52777;BME280;38656;54.260;20.822;2023-06-22T07:38:58;101184.41;;;25.87;100.00
52777;BME280;38656;54.260;20.822;2023-06-22T07:41:24;101176.50;;;26.39;100.00
52777;BME280;38656;54.260;20.822;2023-06-22T07:43:51;101178.59;;;26.37;100.00
52777;BME280;38656;54.260;20.822;2023-06-22T07:46:17;101193.16;;;25.95;100.00
52777;BME280;38656;54.260;20.822;2023-06-22T07:48:43;101183.56;;;25.86;100.00
52777;BME280;38656;54.260;20.822;2023-06-22T07:51:09;101184.84;;;26.10;100.00
52777;BME280;38656;54.260;20.822;2023-06-22T07:53:40;101182.13;;;26.10;100.00
52777;BME280;38656;54.260;20.822;2023-06-22T07:56:07;101197.44;;;25.01;100.00
52777;BME280;38656;54.260;20.822;2023-06-22T07:58:33;101190.47;;;25.20;100.00
52777;BME280;38656;54.260;20.822;2023-06-22T08:01:00;101191.88;;;25.78;100.00
52777;BME280;38656;54.260;20.822;2023-06-22T08:03:26;101206.28;;;25.23;100.00
52777;BME280;38656;54.260;20.822;2023-06-22T08:05:52;101214.84;;;26.56;100.00
52777;BME280;38656;54.260;20.822;2023-06-22T08:08:18;101217.75;;;26.34;100.00
52777;BME280;38656;54.260;20.822;2023-06-22T08:10:44;101211.69;;;26.52;100.00
52777;BME280;38656;54.260;20.822;2023-06-22T08:13:11;101215.56;;;27.55;100.00
52777;BME280;38656;54.260;20.822;2023-06-22T08:15:37;101218.56;;;26.75;100.00
52777;BME280;38656;54.260;20.822;2023-06-22T08:18:03;101220.25;;;26.49;100.00
52777;BME280;38656;54.260;20.822;2023-06-22T08:20:29;101221.91;;;26.57;100.00
52777;BME280;38656;54.260;20.822;2023-06-22T08:22:56;101224.91;;;27.14;100.00
52777;BME280;38656;54.260;20.822;2023-06-22T08:25:24;101222.34;;;26.60;100.00
52777;BME280;38656;54.260;20.822;2023-06-22T08:27:50;101228.09;;;25.77;100.00
52777;BME280;38656;54.260;20.822;2023-06-22T08:30:17;101224.34;;;26.92;100.00
52777;BME280;38656;54.260;20.822;2023-06-22T08:32:44;101223.09;;;28.86;100.00
52777;BME280;38656;54.260;20.822;2023-06-22T08:35:10;101227.13;;;27.44;100.00
52777;BME280;38656;54.260;20.822;2023-06-22T08:37:37;101228.16;;;26.71;100.00
52777;BME280;38656;54.260;20.822;2023-06-22T08:40:06;101229.84;;;26.31;100.00
52777;BME280;38656;54.260;20.822;2023-06-22T08:42:41;101228.78;;;26.59;100.00
52777;BME280;38656;54.260;20.822;2023-06-22T08:45:07;101235.38;;;28.26;100.00
52777;BME280;38656;54.260;20.822;2023-06-22T08:47:34;101231.66;;;28.46;100.00
52777;BME280;38656;54.260;20.822;2023-06-22T08:50:00;101229.25;;;27.35;100.00
52777;BME280;38656;54.260;20.822;2023-06-22T08:52:29;101250.13;;;28.62;100.00
52777;BME280;38656;54.260;20.822;2023-06-22T08:54:55;101249.00;;;28.45;100.00
52777;BME280;38656;54.260;20.822;2023-06-22T08:57:22;101250.16;;;28.99;100.00
52777;BME280;38656;54.260;20.822;2023-06-22T08:59:48;101255.03;;;28.47;100.00
52777;BME280;38656;54.260;20.822;2023-06-22T09:02:14;101247.66;;;28.54;100.00
52777;BME280;38656;54.260;20.822;2023-06-22T09:04:40;101227.97;;;28.33;100.00
52777;BME280;38656;54.260;20.822;2023-06-22T09:07:07;101234.03;;;28.35;97.38
52777;BME280;38656;54.260;20.822;2023-06-22T09:09:33;101241.03;;;29.61;94.66
52777;BME280;38656;54.260;20.822;2023-06-22T09:11:59;101251.50;;;28.90;92.13
52777;BME280;38656;54.260;20.822;2023-06-22T09:14:25;101247.28;;;29.31;90.37
52777;BME280;38656;54.260;20.822;2023-06-22T09:16:52;101243.66;;;29.37;87.53
52777;BME280;38656;54.260;20.822;2023-06-22T09:19:18;101246.56;;;27.72;90.20
52777;BME280;38656;54.260;20.822;2023-06-22T09:21:44;101249.56;;;28.28;92.64
52777;BME280;38656;54.260;20.822;2023-06-22T09:24:10;101251.50;;;27.89;96.11
52777;BME280;38656;54.260;20.822;2023-06-22T09:26:36;101237.19;;;29.01;98.10
52777;BME280;38656;54.260;20.822;2023-06-22T09:29:05;101245.63;;;26.95;97.56
52777;BME280;38656;54.260;20.822;2023-06-22T09:31:32;101246.81;;;27.12;99.49
52777;BME280;38656;54.260;20.822;2023-06-22T09:33:58;101260.81;;;27.68;95.21
52777;BME280;38656;54.260;20.822;2023-06-22T09:36:24;101256.25;;;27.62;97.39
52777;BME280;38656;54.260;20.822;2023-06-22T09:38:50;101254.00;;;27.97;96.63
52777;BME280;38656;54.260;20.822;2023-06-22T09:41:21;101253.88;;;28.11;93.11
52777;BME280;38656;54.260;20.822;2023-06-22T09:43:48;101251.03;;;27.92;94.59
52777;BME280;38656;54.260;20.822;2023-06-22T09:46:17;101238.00;;;28.58;94.27
52777;BME280;38656;54.260;20.822;2023-06-22T09:48:43;101239.75;;;27.05;91.46
52777;BME280;38656;54.260;20.822;2023-06-22T09:51:10;101240.31;;;27.72;90.79
52777;BME280;38656;54.260;20.822;2023-06-22T09:53:36;101236.94;;;27.77;91.03
52777;BME280;38656;54.260;20.822;2023-06-22T09:56:03;101235.38;;;28.26;88.01
52777;BME280;38656;54.260;20.822;2023-06-22T09:58:29;101238.28;;;28.50;90.36
52777;BME280;38656;54.260;20.822;2023-06-22T10:00:55;101248.75;;;29.82;91.27
52777;BME280;38656;54.260;20.822;2023-06-22T10:03:21;101254.81;;;29.66;84.68
52777;BME280;38656;54.260;20.822;2023-06-22T10:05:48;101248.06;;;29.01;83.18
52777;BME280;38656;54.260;20.822;2023-06-22T10:08:14;101249.59;;;29.76;77.85
52777;BME280;38656;54.260;20.822;2023-06-22T10:10:41;101250.88;;;28.69;84.27
52777;BME280;38656;54.260;20.822;2023-06-22T10:13:10;101248.78;;;28.71;86.07
52777;BME280;38656;54.260;20.822;2023-06-22T10:15:38;101241.59;;;27.69;88.86
52777;BME280;38656;54.260;20.822;2023-06-22T10:18:04;101240.41;;;28.48;87.52
52777;BME280;38656;54.260;20.822;2023-06-22T10:20:30;101241.22;;;28.73;83.00
52777;BME280;38656;54.260;20.822;2023-06-22T10:22:57;101235.19;;;28.90;83.98
52777;BME280;38656;54.260;20.822;2023-06-22T10:25:23;101238.34;;;29.73;82.63
52777;BME280;38656;54.260;20.822;2023-06-22T10:27:49;101238.91;;;28.52;86.03
52777;BME280;38656;54.260;20.822;2023-06-22T10:30:16;101240.13;;;30.09;80.03
52777;BME280;38656;54.260;20.822;2023-06-22T10:32:43;101238.84;;;30.95;74.32
52777;BME280;38656;54.260;20.822;2023-06-22T10:35:09;101234.81;;;30.14;75.66
52777;BME280;38656;54.260;20.822;2023-06-22T10:37:39;101242.75;;;29.06;79.33
52777;BME280;38656;54.260;20.822;2023-06-22T10:40:06;101244.81;;;30.68;77.87
52777;BME280;38656;54.260;20.822;2023-06-22T10:42:33;101236.81;;;31.54;66.53
52777;BME280;38656;54.260;20.822;2023-06-22T10:45:00;101240.53;;;30.96;72.19
52777;BME280;38656;54.260;20.822;2023-06-22T10:47:26;101245.47;;;29.43;76.74
52777;BME280;38656;54.260;20.822;2023-06-22T10:49:52;101239.91;;;31.46;69.23
52777;BME280;38656;54.260;20.822;2023-06-22T10:52:18;101241.25;;;30.44;72.14
52777;BME280;38656;54.260;20.822;2023-06-22T10:54:44;101246.44;;;28.93;76.24
52777;BME280;38656;54.260;20.822;2023-06-22T10:57:10;101235.13;;;29.64;67.87
52777;BME280;38656;54.260;20.822;2023-06-22T10:59:37;101237.25;;;30.46;67.01
52777;BME280;38656;54.260;20.822;2023-06-22T11:02:03;101242.38;;;30.12;64.88
52777;BME280;38656;54.260;20.822;2023-06-22T11:04:29;101246.19;;;30.11;70.06
52777;BME280;38656;54.260;20.822;2023-06-22T11:06:55;101240.75;;;29.51;72.58
52777;BME280;38656;54.260;20.822;2023-06-22T11:09:22;101236.72;;;30.02;74.93
52777;BME280;38656;54.260;20.822;2023-06-22T11:11:49;101242.22;;;29.83;68.12
52777;BME280;38656;54.260;20.822;2023-06-22T11:14:16;101241.41;;;32.28;60.07
52777;BME280;38656;54.260;20.822;2023-06-22T11:16:42;101246.03;;;31.65;62.58
52777;BME280;38656;54.260;20.822;2023-06-22T11:19:08;101242.56;;;30.53;61.83
52777;BME280;38656;54.260;20.822;2023-06-22T11:21:35;101243.50;;;30.70;62.27
52777;BME280;38656;54.260;20.822;2023-06-22T11:24:01;101241.66;;;31.81;64.18
52777;BME280;38656;54.260;20.822;2023-06-22T11:26:27;101236.97;;;30.36;63.12
52777;BME280;38656;54.260;20.822;2023-06-22T11:28:54;101234.47;;;29.01;71.08
52777;BME280;38656;54.260;20.822;2023-06-22T11:31:20;101239.09;;;29.80;62.02
52777;BME280;38656;54.260;20.822;2023-06-22T11:33:46;101243.19;;;32.06;58.30
52777;BME280;38656;54.260;20.822;2023-06-22T11:36:14;101237.88;;;31.82;59.21
52777;BME280;38656;54.260;20.822;2023-06-22T11:38:40;101235.75;;;32.01;55.16
52777;BME280;38656;54.260;20.822;2023-06-22T11:41:07;101242.84;;;31.28;57.81
52777;BME280;38656;54.260;20.822;2023-06-22T11:43:34;101239.63;;;30.43;62.25
52777;BME280;38656;54.260;20.822;2023-06-22T11:46:02;101236.78;;;29.65;62.65
52777;BME280;38656;54.260;20.822;2023-06-22T11:48:29;101240.47;;;28.66;65.05
52777;BME280;38656;54.260;20.822;2023-06-22T11:50:55;101247.00;;;28.58;67.31
52777;BME280;38656;54.260;20.822;2023-06-22T11:53:23;101240.34;;;29.35;69.21
52777;BME280;38656;54.260;20.822;2023-06-22T11:55:50;101233.75;;;30.15;61.89
52777;BME280;38656;54.260;20.822;2023-06-22T11:58:16;101243.72;;;30.93;63.31
52777;BME280;38656;54.260;20.822;2023-06-22T12:00:42;101235.13;;;29.64;59.58
52777;BME280;38656;54.260;20.822;2023-06-22T12:03:09;101236.06;;;30.42;63.07
52777;BME280;38656;54.260;20.822;2023-06-22T12:05:35;101234.94;;;31.72;54.20
52777;BME280;38656;54.260;20.822;2023-06-22T12:08:03;101238.13;;;31.11;54.38
52777;BME280;38656;54.260;20.822;2023-06-22T12:10:29;101242.88;;;30.92;55.99
52777;BME280;38656;54.260;20.822;2023-06-22T12:12:55;101239.84;;;31.70;51.21
52777;BME280;38656;54.260;20.822;2023-06-22T12:15:23;101235.81;;;30.56;53.28
52777;BME280;38656;54.260;20.822;2023-06-22T12:17:49;101247.41;;;30.39;53.60
52777;BME280;38656;54.260;20.822;2023-06-22T12:20:16;101234.81;;;28.42;58.96
52777;BME280;38656;54.260;20.822;2023-06-22T12:22:43;101254.06;;;30.43;56.68
52777;BME280;38656;54.260;20.822;2023-06-22T12:25:09;101248.72;;;30.25;54.17
52777;BME280;38656;54.260;20.822;2023-06-22T12:27:36;101253.09;;;31.78;49.58
52777;BME280;38656;54.260;20.822;2023-06-22T12:30:04;101252.59;;;30.29;49.53
52777;BME280;38656;54.260;20.822;2023-06-22T12:32:30;101245.19;;;29.33;50.56
52777;BME280;38656;54.260;20.822;2023-06-22T12:34:56;101248.06;;;29.01;50.01
52777;BME280;38656;54.260;20.822;2023-06-22T12:37:23;101247.16;;;30.29;49.37
52777;BME280;38656;54.260;20.822;2023-06-22T12:39:49;101244.50;;;31.29;49.22
52777;BME280;38656;54.260;20.822;2023-06-22T12:42:16;101239.50;;;30.61;51.91
52777;BME280;38656;54.260;20.822;2023-06-22T12:44:43;101236.84;;;30.31;53.77